createdAt,value
2018-09-18T00:02:19.341Z,4.87
2018-09-18T00:04:52.108Z,4.95
2018-09-18T00:07:21.434Z,3.95
2018-09-18T00:09:50.782Z,3.83
2018-09-18T00:12:20.221Z,4.97
2018-09-18T00:14:51.846Z,4.15
2018-09-18T00:17:21.354Z,4.87
2018-09-18T00:19:50.896Z,4.58
2018-09-18T00:22:20.141Z,4.17
2018-09-18T00:24:49.689Z,4.60
2018-09-18T00:27:18.855Z,4.65
2018-09-18T00:29:48.052Z,4.65
2018-09-18T00:32:17.882Z,3.72
2018-09-18T00:34:47.280Z,4.50
2018-09-18T00:37:16.456Z,4.42
2018-09-18T00:39:45.645Z,5.97
2018-09-18T00:42:14.882Z,3.35
2018-09-18T00:44:44.563Z,3.45
2018-09-18T00:47:15.247Z,4.00
2018-09-18T00:49:44.420Z,4.60
2018-09-18T00:52:13.786Z,4.40
2018-09-18T00:54:43.204Z,3.92
2018-09-18T00:57:12.491Z,4.65
2018-09-18T00:59:41.830Z,3.98
2018-09-18T01:02:12.325Z,4.90
2018-09-18T01:04:42.594Z,4.75
2018-09-18T01:07:11.812Z,4.12
2018-09-18T01:09:41.067Z,4.65
2018-09-18T01:12:10.309Z,4.80
2018-09-18T01:14:40.679Z,5.15
2018-09-18T01:17:10.854Z,4.78
2018-09-18T01:19:40.128Z,4.30
2018-09-18T01:22:09.476Z,4.55
2018-09-18T01:24:39.807Z,4.42
2018-09-18T01:27:09.020Z,3.52
2018-09-18T01:29:38.250Z,4.08
2018-09-18T01:32:07.538Z,4.90
2018-09-18T01:34:36.834Z,4.78
2018-09-18T01:37:06.152Z,4.72
2018-09-18T01:39:35.534Z,4.72
2018-09-18T01:42:04.743Z,4.70
2018-09-18T01:44:34.166Z,4.78
2018-09-18T01:47:03.514Z,4.35
2018-09-18T01:49:32.698Z,4.80
2018-09-18T01:52:02.576Z,4.47
2018-09-18T01:54:31.813Z,4.28
2018-09-18T01:57:01.051Z,4.80
2018-09-18T01:59:30.298Z,5.20
2018-09-18T02:01:59.751Z,5.10
2018-09-18T02:04:29.093Z,5.08
2018-09-18T02:06:58.275Z,4.75
2018-09-18T02:09:27.470Z,5.30
2018-09-18T02:11:56.701Z,5.08
2018-09-18T02:14:25.995Z,5.10
2018-09-18T02:16:55.199Z,5.47
2018-09-18T02:19:24.383Z,4.95
2018-09-18T02:21:53.629Z,5.30
2018-09-18T02:24:23.047Z,3.90
2018-09-18T02:26:52.261Z,4.70
2018-09-18T02:29:21.442Z,5.55
2018-09-18T02:31:50.662Z,4.50
2018-09-18T02:34:21.351Z,4.67
2018-09-18T02:36:50.539Z,5.05
2018-09-18T02:39:19.981Z,6.08
2018-09-18T02:41:49.179Z,5.80
2018-09-18T02:44:18.397Z,4.08
2018-09-18T02:46:47.708Z,5.60
2018-09-18T02:49:16.865Z,5.03
2018-09-18T02:51:46.101Z,4.78
2018-09-18T02:54:15.417Z,4.65
2018-09-18T02:56:44.614Z,5.92
2018-09-18T02:59:13.868Z,5.47
2018-09-18T03:01:43.115Z,4.70
2018-09-18T03:04:12.444Z,4.30
2018-09-18T03:06:41.707Z,5.28
2018-09-18T03:09:11.704Z,4.72
2018-09-18T03:11:40.843Z,4.90
2018-09-18T03:14:12.230Z,5.00
2018-09-18T03:16:41.391Z,4.60
2018-09-18T03:19:10.586Z,4.95
2018-09-18T03:21:39.912Z,6.30
2018-09-18T03:24:11.099Z,4.70
2018-09-18T03:26:40.329Z,6.53
2018-09-18T03:29:09.538Z,4.87
2018-09-18T03:31:38.864Z,4.58
2018-09-18T03:34:08.451Z,6.30
2018-09-18T03:36:37.827Z,5.45
2018-09-18T03:39:08.643Z,5.25
2018-09-18T03:41:38.099Z,5.37
2018-09-18T03:44:07.622Z,6.20
2018-09-18T03:46:37.006Z,4.45
2018-09-18T03:49:06.324Z,5.78
2018-09-18T03:51:50.778Z,5.10
2018-09-18T03:57:19.596Z,5.65
2018-09-18T03:59:48.980Z,4.50
2018-09-18T04:02:19.099Z,5.40
2018-09-18T04:04:49.736Z,6.15
2018-09-18T04:07:19.126Z,5.33
2018-09-18T04:09:48.537Z,6.28
2018-09-18T04:12:17.913Z,6.40
2018-09-18T04:14:47.341Z,5.80
2018-09-18T04:17:18.047Z,6.25
2018-09-18T04:19:47.648Z,5.30
2018-09-18T04:22:18.103Z,5.70
2018-09-18T04:24:50.681Z,6.28
2018-09-18T04:27:20.194Z,6.42
2018-09-18T04:29:50.290Z,5.95
2018-09-18T04:53:27.887Z,5.40
2018-09-18T04:58:44.370Z,5.35
2018-09-18T05:01:15.723Z,5.55
2018-09-18T05:03:58.542Z,4.90
2018-09-18T05:09:11.993Z,6.03
2018-09-18T05:11:41.728Z,6.42
2018-09-18T05:14:11.370Z,6.50
2018-09-18T05:16:41.076Z,5.42
2018-09-18T05:22:07.403Z,5.15
2018-09-18T05:24:38.133Z,6.37
2018-09-18T05:27:12.576Z,6.17
2018-09-18T05:29:53.681Z,5.58
2018-09-18T05:32:33.295Z,6.58
2018-09-18T05:35:07.498Z,7.17
2018-09-18T05:37:38.246Z,6.08
2018-09-18T05:40:08.399Z,5.83
2018-09-18T05:42:38.514Z,6.40
2018-09-18T05:45:08.869Z,6.75
2018-09-18T05:47:41.054Z,6.80
2018-09-18T05:50:11.545Z,5.83
2018-09-18T05:52:41.597Z,8.25
2018-09-18T05:55:11.102Z,7.80
2018-09-18T05:57:40.543Z,6.15
2018-09-18T06:00:10.048Z,6.60
2018-09-18T06:02:39.497Z,6.58
2018-09-18T06:05:10.241Z,5.25
2018-09-18T06:07:40.259Z,6.60
2018-09-18T06:10:09.652Z,4.95
2018-09-18T06:12:39.167Z,6.97
2018-09-18T06:15:08.533Z,5.55
2018-09-18T06:17:37.974Z,6.78
2018-09-18T06:20:07.375Z,6.53
2018-09-18T06:22:36.862Z,6.25
2018-09-18T06:25:07.756Z,6.17
2018-09-18T06:27:37.531Z,5.72
2018-09-18T06:30:07.792Z,7.15
2018-09-18T06:32:37.106Z,7.78
2018-09-18T06:35:07.646Z,7.20
2018-09-18T06:37:36.933Z,6.92
2018-09-18T06:40:06.417Z,7.10
2018-09-18T06:42:36.015Z,6.90
2018-09-18T06:45:06.267Z,6.97
2018-09-18T06:47:38.816Z,6.30
2018-09-18T06:50:08.398Z,6.70
2018-09-18T06:52:37.948Z,7.95
2018-09-18T06:55:07.740Z,7.55
2018-09-18T06:57:37.906Z,7.75
2018-09-18T07:00:07.413Z,7.72
2018-09-18T07:02:37.444Z,7.03
2018-09-18T07:05:06.939Z,6.17
2018-09-18T07:07:36.607Z,7.08
2018-09-18T07:10:06.427Z,7.97
2018-09-18T07:12:37.716Z,7.75
2018-09-18T07:15:08.373Z,8.43
2018-09-18T07:17:39.287Z,7.90
2018-09-18T07:20:22.925Z,9.43
2018-09-18T07:23:03.374Z,8.08
2018-09-18T07:25:34.429Z,8.00
2018-09-18T07:28:04.123Z,8.95
2018-09-18T07:30:36.743Z,8.40
2018-09-18T07:33:07.313Z,8.35
2018-09-18T07:35:36.720Z,8.00
2018-09-18T07:38:06.635Z,9.25
2018-09-18T07:40:36.320Z,7.85
2018-09-18T07:43:08.222Z,8.83
2018-09-18T07:45:37.729Z,8.40
2018-09-18T07:48:09.212Z,7.90
2018-09-18T07:50:40.904Z,8.13
2018-09-18T07:53:12.558Z,7.65
2018-09-18T07:55:54.957Z,8.38
2018-09-18T07:58:32.045Z,7.22
2018-09-18T08:01:03.229Z,8.35
2018-09-18T08:03:33.179Z,8.30
2018-09-18T08:06:03.948Z,7.40
2018-09-18T08:08:35.432Z,8.40
2018-09-18T08:11:06.194Z,7.43
2018-09-18T08:13:38.388Z,7.73
2018-09-18T08:16:12.128Z,7.63
2018-09-18T08:18:43.880Z,8.00
2018-09-18T08:21:20.343Z,7.87
2018-09-18T08:23:49.943Z,8.30
2018-09-18T08:26:19.389Z,6.87
2018-09-18T08:28:49.368Z,7.50
2018-09-18T08:31:20.472Z,6.57
2018-09-18T08:33:53.666Z,7.80
2018-09-18T08:36:27.546Z,7.03
2018-09-18T08:38:57.010Z,7.33
2018-09-18T08:41:26.429Z,7.30
2018-09-18T08:43:55.941Z,6.00
2018-09-18T08:46:25.522Z,7.30
2018-09-18T08:48:57.889Z,7.33
2018-09-18T08:51:28.212Z,7.00
2018-09-18T08:53:58.881Z,6.70
2018-09-18T08:56:28.102Z,7.20
2018-09-18T08:58:57.665Z,7.17
2018-09-18T09:01:27.307Z,7.03
2018-09-18T09:03:56.929Z,6.60
2018-09-18T09:07:34.279Z,5.63
2018-09-18T09:37:30.395Z,6.03
2018-09-18T09:40:24.066Z,6.80
2018-09-18T09:42:59.942Z,6.70
2018-09-18T09:45:30.142Z,6.43
2018-09-18T09:48:01.727Z,7.20
2018-09-18T09:50:37.209Z,6.20
2018-09-18T09:53:07.181Z,6.83
2018-09-18T09:55:51.012Z,6.60
2018-09-18T10:01:42.412Z,6.67
2018-09-18T10:04:15.317Z,6.83
2018-09-18T10:06:53.246Z,5.93
2018-09-18T10:09:25.497Z,6.23
2018-09-18T10:12:48.410Z,6.57
2018-09-18T10:15:32.807Z,6.30
2018-09-18T10:18:04.386Z,6.87
2018-09-18T10:20:33.830Z,6.97
2018-09-18T10:23:06.453Z,6.87
2018-09-18T10:25:36.203Z,6.00
2018-09-18T10:28:06.806Z,6.37
2018-09-18T10:30:37.813Z,6.10
2018-09-18T10:33:07.343Z,6.80
2018-09-18T10:35:49.003Z,5.80
2018-09-18T11:50:05.310Z,5.07
2018-09-18T12:01:37.171Z,4.90
2018-09-18T12:04:09.756Z,5.87
2018-09-18T12:06:39.193Z,5.77
2018-09-18T12:09:11.119Z,5.63
2018-09-18T12:11:43.627Z,5.43
2018-09-18T12:14:13.470Z,5.30
2018-09-18T12:16:43.328Z,5.67
2018-09-18T12:19:14.610Z,6.03
2018-09-18T12:21:44.402Z,5.20
2018-09-18T12:24:19.270Z,5.27
2018-09-18T12:26:48.926Z,4.83
2018-09-18T12:29:18.397Z,5.27
2018-09-18T12:31:47.848Z,5.50
2018-09-18T12:34:18.623Z,5.80
2018-09-18T12:36:48.414Z,5.33
2018-09-18T12:39:18.509Z,5.33
2018-09-18T12:41:48.110Z,5.70
2018-09-18T12:44:18.457Z,5.33
2018-09-18T12:46:48.105Z,5.23
2018-09-18T12:49:17.586Z,4.87
2018-09-18T12:51:47.238Z,4.50
2018-09-18T12:54:18.282Z,4.63
2018-09-18T12:56:47.807Z,5.17
2018-09-18T12:59:17.052Z,4.77
2018-09-18T13:01:47.340Z,3.97
2018-09-18T13:04:19.070Z,4.43
2018-09-18T13:06:49.603Z,4.30
2018-09-18T13:09:24.351Z,4.30
2018-09-18T13:11:53.874Z,3.87
2018-09-18T13:14:25.559Z,4.93
2018-09-18T13:16:55.140Z,4.17
2018-09-18T13:19:24.379Z,4.60
2018-09-18T13:21:53.779Z,5.17
2018-09-18T13:24:24.274Z,5.00
2018-09-18T13:26:53.767Z,4.03
2018-09-18T13:29:23.237Z,4.07
2018-09-18T13:31:53.224Z,4.83
2018-09-18T13:34:24.812Z,4.70
2018-09-18T13:36:54.241Z,4.30
2018-09-18T13:39:23.527Z,3.67
2018-09-18T13:41:53.125Z,3.63
2018-09-18T13:44:22.715Z,4.47
2018-09-18T13:46:52.198Z,4.97
2018-09-18T13:49:21.710Z,3.83
2018-09-18T13:51:51.234Z,4.27
2018-09-18T13:54:20.849Z,4.20
2018-09-18T13:56:50.193Z,4.30
2018-09-18T13:59:19.874Z,3.70
2018-09-18T14:01:49.380Z,4.50
2018-09-18T14:04:19.917Z,3.67
2018-09-18T14:06:49.919Z,4.50
2018-09-18T14:09:19.224Z,4.33
2018-09-18T14:11:48.629Z,4.40
2018-09-18T14:14:18.215Z,4.07
2018-09-18T14:16:47.589Z,4.00
2018-09-18T14:19:18.763Z,3.83
2018-09-18T14:21:48.912Z,3.70
2018-09-18T14:24:20.395Z,3.47
2018-09-18T14:26:49.723Z,3.60
2018-09-18T14:29:19.361Z,3.67
2018-09-18T14:31:49.489Z,3.90
2018-09-18T14:34:19.811Z,4.50
2018-09-18T14:36:49.290Z,5.17
2018-09-18T14:39:18.699Z,5.17
2018-09-18T14:41:48.262Z,4.73
2018-09-18T14:44:18.171Z,5.07
2018-09-18T14:46:48.329Z,4.77
2018-09-18T14:49:17.824Z,4.27
2018-09-18T14:51:47.601Z,5.63
2018-09-18T14:57:16.633Z,4.83
2018-09-18T15:00:02.207Z,5.83
2018-09-18T15:02:37.885Z,5.00
2018-09-18T15:05:15.625Z,4.80
2018-09-18T15:07:45.052Z,4.77
2018-09-18T15:10:21.479Z,4.23
2018-09-18T15:13:21.957Z,5.30
2018-09-18T15:15:59.226Z,5.60
2018-09-18T15:18:33.435Z,4.87
2018-09-18T15:21:04.607Z,4.63
2018-09-18T15:23:44.954Z,5.00
2018-09-18T15:26:19.287Z,4.83
2018-09-18T15:28:55.506Z,5.10
2018-09-18T15:34:28.769Z,6.07
2018-09-18T15:37:00.662Z,8.73
2018-09-18T15:39:30.561Z,10.97
2018-09-18T15:41:59.863Z,8.03
2018-09-18T15:44:34.026Z,6.10
2018-09-18T15:47:08.116Z,7.20
2018-09-18T15:49:37.508Z,5.90
2018-09-18T15:52:06.988Z,8.50
2018-09-18T15:54:37.385Z,7.57
2018-09-18T15:57:11.056Z,8.40
2018-09-18T15:59:40.760Z,6.43
2018-09-18T16:02:10.799Z,7.47
2018-09-18T16:04:46.860Z,8.40
2018-09-18T16:07:16.232Z,5.73
2018-09-18T16:09:45.572Z,6.03
2018-09-18T16:12:16.368Z,7.10
2018-09-18T16:14:51.950Z,6.27
2018-09-18T16:17:25.559Z,6.57
2018-09-18T16:19:55.345Z,7.57
2018-09-18T16:22:26.263Z,6.37
2018-09-18T16:24:58.608Z,7.10
2018-09-18T16:27:28.434Z,6.40
2018-09-18T16:29:59.309Z,5.90
2018-09-18T16:32:30.170Z,4.67
2018-09-18T16:35:08.102Z,5.50
2018-09-18T16:37:41.748Z,5.70
2018-09-18T16:40:17.221Z,6.43
2018-09-18T16:42:47.847Z,5.00
2018-09-18T16:45:17.970Z,5.97
2018-09-18T16:47:48.531Z,6.07
2018-09-18T16:50:19.122Z,4.77
2018-09-18T16:52:50.767Z,4.57
2018-09-18T16:55:20.250Z,4.40
2018-09-18T16:57:50.772Z,5.60
2018-09-18T17:00:27.175Z,5.30
2018-09-18T17:04:01.423Z,4.53
2018-09-18T17:06:30.856Z,5.80
2018-09-18T17:09:00.163Z,5.80
2018-09-18T17:11:35.604Z,4.50
2018-09-18T17:14:13.276Z,4.40
2018-09-18T17:16:44.038Z,4.07
2018-09-18T17:19:14.452Z,4.43
2018-09-18T17:21:44.019Z,5.60
2018-09-18T17:24:20.356Z,5.10
2018-09-18T17:26:49.770Z,4.90
2018-09-18T17:29:33.989Z,4.67
2018-09-18T17:32:03.421Z,4.90
2018-09-18T17:34:40.504Z,4.67
2018-09-18T17:37:16.081Z,5.30
2018-09-18T17:39:45.437Z,4.90
2018-09-18T17:42:14.722Z,4.90
2018-09-18T17:44:46.162Z,4.70
2018-09-18T17:47:18.182Z,3.93
2018-09-18T17:49:47.896Z,4.20
2018-09-18T17:52:17.446Z,2.50
2018-09-18T17:54:46.872Z,2.13
2018-09-18T17:57:17.999Z,1.90
2018-09-18T17:59:47.388Z,2.20
2018-09-18T18:02:17.273Z,1.80
2018-09-18T18:04:48.441Z,1.30
2018-09-18T18:07:19.971Z,1.70
2018-09-18T18:15:21.903Z,1.90
2018-09-18T18:17:52.467Z,1.87
2018-09-18T18:20:25.664Z,2.13
2018-09-18T18:22:55.756Z,1.60
2018-09-18T18:25:32.357Z,2.20
2018-09-18T18:28:01.719Z,1.90
2018-09-18T18:30:31.225Z,1.47
2018-09-18T18:33:01.722Z,1.90
2018-09-18T18:35:30.978Z,1.83
2018-09-18T18:38:01.277Z,1.30
2018-09-18T18:40:30.737Z,1.87
2018-09-18T18:43:01.205Z,1.50
2018-09-18T18:45:31.116Z,1.67
2018-09-18T18:48:07.819Z,1.70
2018-09-18T18:50:37.627Z,1.67
2018-09-18T18:53:11.101Z,2.57
2018-09-18T18:58:34.273Z,2.40
2018-09-18T19:01:12.422Z,1.67
2018-09-18T19:06:42.019Z,1.80
2018-09-18T19:09:17.324Z,1.77
2018-09-18T19:11:51.960Z,1.77
2018-09-18T19:14:29.975Z,1.60
2018-09-18T19:17:12.701Z,1.90
2018-09-18T19:19:47.432Z,1.97
2018-09-18T19:22:22.658Z,1.50
2018-09-18T19:24:53.908Z,1.77
2018-09-18T19:27:31.005Z,2.37
2018-09-18T19:30:08.374Z,2.30
2018-09-18T19:32:39.991Z,1.80
2018-09-18T19:35:14.829Z,1.57
2018-09-18T19:37:52.882Z,1.57
2018-09-18T19:40:27.812Z,1.90
2018-09-18T19:42:59.232Z,2.00
2018-09-18T19:45:40.675Z,1.95
2018-09-18T19:48:10.424Z,1.55
2018-09-18T19:50:45.335Z,2.00
2018-09-18T19:53:14.743Z,1.87
2018-09-18T19:59:11.983Z,2.22
2018-09-18T20:42:04.761Z,1.70
2018-09-18T20:44:34.167Z,2.62
2018-09-18T20:56:30.921Z,2.35
2018-09-18T20:59:02.609Z,3.62
2018-09-18T21:01:33.218Z,3.40
2018-09-18T21:04:06.612Z,2.42
2018-09-18T21:06:36.560Z,2.75
2018-09-18T21:09:09.876Z,3.12
2018-09-18T21:11:42.458Z,2.75
2018-09-18T21:14:16.984Z,2.85
2018-09-18T21:16:48.281Z,2.67
2018-09-18T21:19:18.130Z,2.92
2018-09-18T21:21:50.108Z,3.20
2018-09-18T21:24:20.776Z,3.37
2018-09-18T21:26:50.200Z,2.92
2018-09-18T21:29:19.686Z,2.83
2018-09-18T21:31:49.354Z,2.45
2018-09-18T21:34:19.167Z,2.42
2018-09-18T21:36:48.757Z,2.70
2018-09-18T21:39:18.581Z,2.90
2018-09-18T21:41:48.778Z,2.58
2018-09-18T21:44:20.425Z,2.83
2018-09-18T21:46:50.696Z,3.10
2018-09-18T21:49:20.205Z,2.72
2018-09-18T21:51:49.989Z,4.20
2018-09-18T21:54:20.705Z,4.10
2018-09-18T21:56:50.623Z,3.47
2018-09-18T21:59:20.041Z,3.33
2018-09-18T22:01:49.447Z,3.75
2018-09-18T22:04:20.186Z,3.10
2018-09-18T22:06:49.965Z,4.55
2018-09-18T22:09:20.637Z,4.40
2018-09-18T22:11:50.169Z,3.87
2018-09-18T22:14:19.631Z,3.77
2018-09-18T22:16:49.092Z,4.53
2018-09-18T22:19:18.783Z,3.20
2018-09-18T22:21:48.556Z,3.92
2018-09-18T22:24:20.791Z,3.80
2018-09-18T22:26:50.006Z,4.35
2018-09-18T22:29:29.895Z,5.35
2018-09-18T22:32:00.018Z,4.37
2018-09-18T22:34:31.204Z,3.95
2018-09-18T22:37:00.432Z,5.25
2018-09-18T22:39:30.578Z,5.05
2018-09-18T22:42:01.454Z,4.00
2018-09-18T22:44:33.259Z,5.25
2018-09-18T22:47:03.776Z,4.80
2018-09-18T22:49:33.593Z,5.08
2018-09-18T22:52:03.043Z,5.20
2018-09-18T22:54:33.618Z,6.00
2018-09-18T22:57:04.030Z,5.20
2018-09-18T22:59:33.613Z,4.78
2018-09-18T23:02:03.069Z,4.62
2018-09-18T23:04:38.178Z,5.40
2018-09-18T23:07:07.634Z,4.85
2018-09-18T23:09:37.059Z,5.97
2018-09-18T23:12:06.600Z,6.47
2018-09-18T23:14:36.294Z,5.53
2018-09-18T23:17:05.613Z,6.40
2018-09-18T23:19:35.798Z,6.40
2018-09-18T23:22:05.244Z,5.80
2018-09-18T23:24:36.076Z,6.42
2018-09-18T23:27:05.960Z,6.33
2018-09-18T23:29:35.970Z,6.40
2018-09-18T23:32:06.080Z,6.65
2018-09-18T23:34:36.362Z,6.10
2018-09-18T23:37:07.755Z,5.53
2018-09-18T23:39:37.831Z,6.55
2018-09-18T23:42:08.925Z,6.50
2018-09-18T23:44:39.235Z,5.37
2018-09-18T23:47:10.203Z,6.17
2018-09-18T23:49:40.477Z,7.58
2018-09-18T23:52:10.974Z,5.42
2018-09-18T23:54:41.983Z,6.08
2018-09-18T23:57:12.249Z,6.60
2018-09-18T23:59:42.358Z,7.40
